Terminal Aerodrome Forecast
Issued by NWS

Home | Current Version | Previous Version | Graphics & Text | Print | Product List | Glossary On
Versions: 1 2 3 4 5 6 7 8 9 10 11 12 13 14 15 16 17 18 19 20 21 22 23 24 25 26 27 28 29 30 31 32 33 34 35 36 37 38 39 40 41 42 43 44 45 46
000
FTUS43 KGRB 211700
TAFRHI
TAF
KRHI 211720Z 2118/2218 34010G17KT P6SM SCT018 BKN025
     FM212000 34008KT P6SM SCT040
     FM212300 32003KT P6SM SKC
     FM220600 00000KT 3SM BR SKC
      TEMPO 2209/2212 1/2SM FG
     FM221400 28005KT P6SM SCT250=

USA.gov is the U.S. government's official web portal to all federal, state and local government web resources and services.